Time;durP1;ratioP1;P1;durP2;ratioP2;P2;SDS_P1;SDS_P2;PMS_P1;PMS_P2;Temp;Humidity;BMP_temperature;BMP_pressure;BME280_temperature;BME280_humidity;BME280_pressure;Samples;Min_cycle;Max_cycle;Signal;HPM_P1;HPM_P2
2023/05/04 00:03:56;;;;;;;14.00;7.13;;;;;9.00;96925.00;;;;8272064;28;20284;-71
2023/05/04 00:08:01;;;;;;;9.73;7.10;;;;;8.90;96927.00;;;;8253691;28;20206;-71
2023/05/04 00:12:05;;;;;;;11.87;6.97;;;;;8.90;96933.00;;;;8256887;28;20281;-72
2023/05/04 00:16:10;;;;;;;13.13;6.40;;;;;8.90;96922.00;;;;8241954;28;20269;-72
2023/05/04 00:20:18;;;;;;;12.27;6.50;;;;;8.90;96924.00;;;;8251716;28;20203;-72
2023/05/04 00:24:27;;;;;;;12.87;7.40;;;;;8.90;96923.00;;;;8255050;28;20199;-71
2023/05/04 00:28:31;;;;;;;15.10;7.30;;;;;8.90;96921.00;;;;8257219;28;20281;-71
2023/05/04 00:32:34;;;;;;;11.60;7.60;;;;;8.80;96919.00;;;;8254948;28;20226;-71
2023/05/04 00:36:38;;;;;;;12.03;7.33;;;;;8.80;96913.00;;;;8252745;28;20206;-72
2023/05/04 00:40:43;;;;;;;21.30;8.13;;;;;8.70;96915.00;;;;8252304;28;20241;-71
2023/05/04 00:44:47;;;;;;;14.07;7.77;;;;;8.60;96913.00;;;;8252558;28;20217;-71
2023/05/04 00:48:52;;;;;;;17.00;8.73;;;;;8.60;96905.00;;;;8248141;28;20265;-70
2023/05/04 00:52:58;;;;;;;10.90;6.27;;;;;8.30;96906.00;;;;8255925;28;20215;-70
2023/05/04 00:57:05;;;;;;;12.33;6.90;;;;;8.00;96904.00;;;;8254534;28;20215;-70
2023/05/04 01:01:08;;;;;;;13.43;6.27;;;;;7.70;96904.00;;;;8254234;28;20199;-70
2023/05/04 01:05:12;;;;;;;12.40;6.37;;;;;7.50;96904.00;;;;8255773;28;20455;-70
2023/05/04 01:09:28;;;;;;;10.80;6.80;;;;;7.30;96898.00;;;;8254056;28;20207;-70
2023/05/04 01:13:34;;;;;;;11.33;6.70;;;;;7.10;96896.00;;;;8270988;28;20609;-70
2023/05/04 01:17:41;;;;;;;14.33;6.33;;;;;6.90;96890.00;;;;8254137;28;20203;-70
2023/05/04 01:21:47;;;;;;;10.10;6.60;;;;;6.70;96897.00;;;;8250627;28;20198;-71
2023/05/04 01:26:00;;;;;;;15.63;7.37;;;;;6.60;96887.00;;;;8252737;28;20265;-70
2023/05/04 01:30:09;;;;;;;12.83;7.70;;;;;6.50;96886.00;;;;8251303;28;20229;-70
2023/05/04 01:34:14;;;;;;;11.83;7.80;;;;;6.40;96896.00;;;;8249935;28;20229;-70
2023/05/04 01:38:19;;;;;;;12.57;7.27;;;;;6.30;96893.00;;;;8251405;28;20194;-70
2023/05/04 01:42:22;;;;;;;11.73;7.53;;;;;6.20;96884.00;;;;8251970;28;20656;-70
2023/05/04 01:46:25;;;;;;;12.63;6.93;;;;;6.10;96895.00;;;;8255129;28;20569;-71
2023/05/04 01:50:28;;;;;;;12.50;7.13;;;;;6.00;96887.00;;;;8253435;28;20230;-71
2023/05/04 01:54:34;;;;;;;13.90;6.90;;;;;5.90;96881.00;;;;8252783;28;20214;-71
2023/05/04 01:58:37;;;;;;;11.27;6.97;;;;;5.80;96884.00;;;;8244890;28;20198;-71
2023/05/04 02:02:49;;;;;;;21.53;7.83;;;;;5.70;96875.00;;;;8253312;28;20338;-72
2023/05/04 02:06:52;;;;;;;13.40;6.87;;;;;5.60;96875.00;;;;8251386;28;20690;-70
2023/05/04 02:10:57;;;;;;;15.47;7.43;;;;;5.50;96874.00;;;;8254117;28;20234;-70
2023/05/04 02:15:04;;;;;;;15.40;7.10;;;;;5.40;96871.00;;;;8251024;28;20292;-71
2023/05/04 02:19:09;;;;;;;12.20;7.60;;;;;5.30;96868.00;;;;8253177;28;20365;-70
2023/05/04 02:23:12;;;;;;;12.63;7.27;;;;;5.20;96868.00;;;;8253344;28;20214;-71
2023/05/04 02:27:18;;;;;;;15.00;7.43;;;;;5.10;96861.00;;;;8252190;28;20198;-71
2023/05/04 02:31:25;;;;;;;14.27;7.10;;;;;5.10;96864.00;;;;8251033;28;20280;-70
2023/05/04 02:35:28;;;;;;;13.80;7.57;;;;;5.00;96853.00;;;;8246617;28;20206;-70
2023/05/04 02:39:31;;;;;;;14.20;7.77;;;;;4.90;96856.00;;;;8254230;28;20278;-71
2023/05/04 02:43:36;;;;;;;17.90;8.10;;;;;4.90;96859.00;;;;8253212;28;20197;-70
2023/05/04 02:47:39;;;;;;;15.87;8.00;;;;;4.90;96859.00;;;;8248757;28;20658;-71
2023/05/04 02:51:43;;;;;;;15.50;7.43;;;;;4.90;96865.00;;;;8248731;28;20238;-72
2023/05/04 02:55:51;;;;;;;11.43;6.93;;;;;4.80;96861.00;;;;8253308;28;20595;-72
2023/05/04 02:59:56;;;;;;;15.97;8.23;;;;;4.80;96862.00;;;;8250118;28;20201;-71
2023/05/04 03:04:02;;;;;;;15.57;7.30;;;;;4.70;96871.00;;;;8287125;23;20790;-70
2023/05/04 03:08:06;;;;;;;13.83;7.40;;;;;4.60;96876.00;;;;8281794;28;20213;-71
2023/05/04 03:12:13;;;;;;;14.47;7.93;;;;;4.50;96871.00;;;;8279750;28;20621;-71
2023/05/04 03:16:17;;;;;;;13.90;7.80;;;;;4.50;96867.00;;;;8281388;28;20213;-70
2023/05/04 03:20:21;;;;;;;12.87;7.40;;;;;4.40;96872.00;;;;8282408;28;20204;-69
2023/05/04 03:24:27;;;;;;;17.40;7.97;;;;;4.40;96875.00;;;;8274898;28;20201;-69
2023/05/04 03:28:30;;;;;;;18.03;8.50;;;;;4.40;96866.00;;;;8281850;28;20256;-71
2023/05/04 03:32:36;;;;;;;17.17;8.30;;;;;4.30;96866.00;;;;8288420;28;20828;-70
2023/05/04 03:36:41;;;;;;;15.50;7.90;;;;;4.30;96861.00;;;;8288954;28;20216;-71
2023/05/04 03:40:51;;;;;;;16.43;8.40;;;;;4.30;96868.00;;;;8288147;28;20229;-70
2023/05/04 03:44:55;;;;;;;17.73;8.87;;;;;4.30;96868.00;;;;8288663;28;20215;-70
2023/05/04 03:49:01;;;;;;;15.47;7.53;;;;;4.30;96862.00;;;;8288715;28;20231;-70
2023/05/04 03:53:05;;;;;;;20.90;10.00;;;;;4.30;96869.00;;;;8287709;28;20232;-67
2023/05/04 03:57:10;;;;;;;15.43;8.40;;;;;4.30;96874.00;;;;8278784;28;20707;-70
2023/05/04 04:01:13;;;;;;;15.20;7.80;;;;;4.40;96869.00;;;;8282054;28;20235;-70
2023/05/04 04:05:18;;;;;;;18.00;7.83;;;;;4.40;96858.00;;;;8275463;28;20263;-70
2023/05/04 04:09:22;;;;;;;14.33;8.03;;;;;4.40;96860.00;;;;8282721;28;20212;-70
2023/05/04 04:13:26;;;;;;;16.37;8.30;;;;;4.40;96854.00;;;;8277256;28;20298;-72
2023/05/04 04:17:29;;;;;;;20.80;10.90;;;;;4.40;96862.00;;;;8280798;28;20281;-71
2023/05/04 04:21:34;;;;;;;19.43;9.77;;;;;4.60;96859.00;;;;8283344;28;20820;-70
2023/05/04 04:25:37;;;;;;;18.80;9.80;;;;;4.90;96863.00;;;;8279725;28;20243;-70
2023/05/04 04:29:40;;;;;;;23.13;11.17;;;;;5.10;96866.00;;;;8281674;28;20781;-71
2023/05/04 04:33:46;;;;;;;22.37;9.57;;;;;5.20;96857.00;;;;8281638;28;20251;-72
2023/05/04 04:37:51;;;;;;;18.13;8.47;;;;;5.30;96871.00;;;;8280099;28;20240;-72
2023/05/04 04:41:55;;;;;;;14.60;8.23;;;;;5.40;96861.00;;;;8281421;28;20259;-72
2023/05/04 04:45:58;;;;;;;20.50;9.00;;;;;5.50;96863.00;;;;8287118;28;20256;-71
2023/05/04 04:50:02;;;;;;;20.00;9.40;;;;;5.70;96869.00;;;;8284752;28;20201;-71
2023/05/04 04:54:07;;;;;;;18.13;8.33;;;;;5.80;96878.00;;;;8281225;28;20236;-72
2023/05/04 04:58:10;;;;;;;15.83;8.57;;;;;5.90;96882.00;;;;8282402;28;20540;-72
2023/05/04 05:02:13;;;;;;;20.73;8.73;;;;;6.10;96888.00;;;;8291247;28;20227;-71
2023/05/04 05:06:18;;;;;;;13.70;7.87;;;;;6.30;96899.00;;;;8280532;28;20190;-72
2023/05/04 05:10:23;;;;;;;13.50;7.63;;;;;6.40;96898.00;;;;8279446;28;20547;-72
2023/05/04 05:14:30;;;;;;;14.37;8.00;;;;;6.60;96895.00;;;;8283452;28;20276;-72
2023/05/04 05:18:34;;;;;;;16.20;9.07;;;;;6.90;96902.00;;;;8278816;28;20203;-72
2023/05/04 05:22:42;;;;;;;16.37;8.87;;;;;7.30;96899.00;;;;8283072;28;20234;-72
2023/05/04 05:26:51;;;;;;;20.23;10.77;;;;;7.70;96907.00;;;;8283572;28;20578;-72
2023/05/04 05:30:57;;;;;;;24.67;11.07;;;;;8.10;96913.00;;;;8278395;28;20198;-71
2023/05/04 05:35:00;;;;;;;17.10;10.20;;;;;8.60;96907.00;;;;8281098;28;20209;-71
2023/05/04 05:39:04;;;;;;;18.70;10.63;;;;;9.10;96905.00;;;;8278589;28;20206;-70
2023/05/04 05:43:08;;;;;;;19.47;8.97;;;;;9.40;96901.00;;;;8276014;28;20202;-70
2023/05/04 05:47:14;;;;;;;18.10;8.60;;;;;9.70;96903.00;;;;8276715;28;20206;-71
2023/05/04 05:51:17;;;;;;;14.07;8.20;;;;;9.90;96903.00;;;;8275836;28;20695;-70
2023/05/04 05:55:23;;;;;;;19.97;9.20;;;;;10.00;96913.00;;;;8268190;28;20241;-72
2023/05/04 05:59:30;;;;;;;15.40;8.10;;;;;10.20;96913.00;;;;8283354;28;20191;-70
2023/05/04 06:03:34;;;;;;;14.97;8.37;;;;;10.40;96907.00;;;;8270163;28;20273;-70
2023/05/04 06:07:37;;;;;;;13.47;7.33;;;;;10.60;96901.00;;;;8277909;28;20564;-70
2023/05/04 06:11:43;;;;;;;16.83;8.52;;;;;10.80;96903.00;;;;8280556;28;20242;-71
2023/05/04 06:15:52;;;;;;;17.23;8.70;;;;;10.90;96896.00;;;;8278155;28;20248;-70
2023/05/04 06:19:57;;;;;;;13.57;8.02;;;;;11.20;96908.00;;;;8283341;28;20268;-70
2023/05/04 06:24:04;;;;;;;14.68;8.43;;;;;11.50;96909.00;;;;8269288;28;20204;-69
2023/05/04 06:28:07;;;;;;;14.35;7.38;;;;;11.90;96909.00;;;;8277406;28;20204;-69
2023/05/04 06:32:12;;;;;;;30.73;8.80;;;;;12.30;96906.00;;;;8277963;28;20971;-71
2023/05/04 06:36:17;;;;;;;13.35;7.95;;;;;12.80;96906.00;;;;8277837;28;20288;-71
2023/05/04 06:40:21;;;;;;;15.85;7.47;;;;;13.30;96912.00;;;;8269521;28;20203;-71
2023/05/04 06:44:27;;;;;;;10.50;6.80;;;;;13.50;96910.00;;;;8281858;28;20197;-71
2023/05/04 06:48:31;;;;;;;12.45;7.30;;;;;14.20;96911.00;;;;8272937;28;20212;-72
2023/05/04 06:52:38;;;;;;;10.88;7.07;;;;;14.70;96916.00;;;;8273435;28;20728;-72
2023/05/04 06:56:44;;;;;;;13.75;7.25;;;;;15.30;96922.00;;;;8273424;28;20820;-71
2023/05/04 07:00:47;;;;;;;10.48;6.78;;;;;15.80;96920.00;;;;8277942;28;21775;-72
2023/05/04 07:04:53;;;;;;;12.35;6.35;;;;;16.50;96912.00;;;;8269355;28;20606;-72
2023/05/04 07:08:56;;;;;;;12.32;6.43;;;;;17.00;96903.00;;;;8269251;28;20263;-72
2023/05/04 07:13:02;;;;;;;10.55;6.60;;;;;17.40;96898.00;;;;8273135;28;20237;-72
2023/05/04 07:17:05;;;;;;;10.20;6.72;;;;;18.10;96905.00;;;;8265083;28;20204;-72
2023/05/04 07:21:13;;;;;;;6.88;5.07;;;;;18.40;96910.00;;;;8270574;28;20261;-72
2023/05/04 07:25:19;;;;;;;8.18;5.80;;;;;18.70;96902.00;;;;8274208;28;20217;-70
2023/05/04 07:29:26;;;;;;;9.73;6.13;;;;;19.00;96906.00;;;;8278686;28;20202;-71
2023/05/04 07:33:29;;;;;;;9.65;6.13;;;;;18.90;96901.00;;;;8270547;28;21005;-71
2023/05/04 07:37:36;;;;;;;11.88;6.43;;;;;18.90;96907.00;;;;8268872;28;20203;-71
2023/05/04 07:41:39;;;;;;;9.75;6.45;;;;;19.30;96912.00;;;;8282787;28;20632;-74
2023/05/04 07:45:42;;;;;;;10.95;6.45;;;;;19.60;96901.00;;;;8279313;28;20202;-71
2023/05/04 07:49:46;;;;;;;11.38;6.93;;;;;19.40;96906.00;;;;8276515;28;20199;-70
2023/05/04 07:53:51;;;;;;;11.13;6.38;;;;;19.50;96896.00;;;;8265065;28;20222;-72
2023/05/04 07:57:57;;;;;;;13.18;6.90;;;;;19.70;96901.00;;;;8272763;28;20211;-72
2023/05/04 08:02:05;;;;;;;11.02;7.10;;;;;19.80;96901.00;;;;8276602;28;20237;-72
2023/05/04 08:06:09;;;;;;;10.73;6.75;;;;;20.30;96894.00;;;;8271699;28;20204;-73
2023/05/04 08:10:14;;;;;;;10.95;6.45;;;;;20.70;96902.00;;;;8280400;28;20195;-73
2023/05/04 08:14:20;;;;;;;13.10;7.32;;;;;20.90;96895.00;;;;8276375;28;20636;-74
2023/05/04 08:18:30;;;;;;;18.33;6.78;;;;;21.30;96890.00;;;;8277572;28;20206;-78
2023/05/04 08:22:36;;;;;;;12.60;6.70;;;;;21.50;96901.00;;;;8279483;28;20198;-77
2023/05/04 08:26:40;;;;;;;13.57;7.22;;;;;21.60;96896.00;;;;8283696;28;20195;-78
2023/05/04 08:30:47;;;;;;;9.55;5.43;;;;;21.80;96905.00;;;;8281793;28;20260;-77
2023/05/04 08:34:52;;;;;;;13.10;6.43;;;;;21.80;96899.00;;;;8284905;28;20225;-77
2023/05/04 08:38:56;;;;;;;11.25;6.78;;;;;22.00;96908.00;;;;8281327;28;20194;-77
2023/05/04 08:43:01;;;;;;;10.77;6.10;;;;;22.60;96906.00;;;;8278014;28;20287;-77
2023/05/04 08:47:06;;;;;;;10.20;6.22;;;;;23.10;96905.00;;;;8282141;28;20934;-78
2023/05/04 08:51:14;;;;;;;12.57;7.22;;;;;23.20;96904.00;;;;8278722;28;20268;-77
2023/05/04 08:55:18;;;;;;;10.05;6.43;;;;;23.30;96910.00;;;;8277938;28;20420;-73
2023/05/04 08:59:31;;;;;;;7.90;5.45;;;;;23.20;96911.00;;;;8275854;28;20199;-74
2023/05/04 09:03:35;;;;;;;10.35;6.95;;;;;23.20;96914.00;;;;8277864;28;20268;-72
2023/05/04 09:07:38;;;;;;;10.68;6.05;;;;;23.30;96914.00;;;;8277620;28;20202;-77
2023/05/04 09:11:42;;;;;;;11.23;6.07;;;;;23.70;96913.00;;;;8275180;28;20202;-72
2023/05/04 09:15:58;;;;;;;10.20;6.18;;;;;24.30;96905.00;;;;8281944;28;20222;-73
2023/05/04 09:20:04;;;;;;;11.05;5.70;;;;;24.90;96907.00;;;;8275400;28;20202;-73
2023/05/04 09:24:11;;;;;;;9.05;6.15;;;;;25.10;96887.00;;;;8279648;28;20210;-73
2023/05/04 09:28:14;;;;;;;9.10;5.57;;;;;24.90;96895.00;;;;8268867;28;20222;-73
2023/05/04 09:32:22;;;;;;;10.80;5.80;;;;;24.90;96897.00;;;;8270936;28;20199;-75
2023/05/04 09:36:27;;;;;;;7.75;5.60;;;;;24.90;96896.00;;;;8277015;28;20233;-73
2023/05/04 09:40:31;;;;;;;8.48;5.70;;;;;25.20;96893.00;;;;8279241;28;20198;-73
2023/05/04 09:44:34;;;;;;;7.18;5.55;;;;;25.60;96891.00;;;;8281444;28;20261;-73
2023/05/04 09:48:38;;;;;;;10.15;5.82;;;;;26.10;96892.00;;;;8282067;28;20264;-74
2023/05/04 09:52:43;;;;;;;6.72;5.22;;;;;26.40;96896.00;;;;8286816;28;20288;-75
2023/05/04 09:56:50;;;;;;;8.75;5.75;;;;;26.30;96881.00;;;;8281249;28;20195;-74
2023/05/04 10:00:53;;;;;;;8.93;5.35;;;;;26.40;96879.00;;;;8269188;28;20199;-73
2023/05/04 10:05:01;;;;;;;10.57;5.40;;;;;26.70;96878.00;;;;8273215;28;20222;-72
2023/05/04 10:09:05;;;;;;;11.15;5.38;;;;;26.40;96882.00;;;;8268345;28;20206;-75
2023/05/04 10:13:12;;;;;;;6.47;4.82;;;;;26.20;96882.00;;;;8274012;28;20226;-74
2023/05/04 10:17:25;;;;;;;9.02;4.90;;;;;26.40;96884.00;;;;8277861;28;20202;-74
2023/05/04 10:21:38;;;;;;;6.35;4.90;;;;;26.60;96872.00;;;;8270319;28;20209;-74
2023/05/04 10:25:58;;;;;;;9.05;5.15;;;;;27.10;96866.00;;;;8275281;28;20214;-74
2023/05/04 10:30:03;;;;;;;10.23;5.13;;;;;27.60;96860.00;;;;8277381;28;20214;-73
2023/05/04 10:34:08;;;;;;;7.57;5.22;;;;;27.40;96861.00;;;;8278316;28;20229;-74
2023/05/04 10:38:16;;;;;;;10.35;5.80;;;;;27.70;96858.00;;;;8275644;28;20685;-74
2023/05/04 10:42:20;;;;;;;8.32;4.85;;;;;27.80;96857.00;;;;8272463;28;20279;-73
2023/05/04 10:46:24;;;;;;;7.32;4.65;;;;;28.00;96855.00;;;;8276375;28;20214;-74
2023/05/04 10:50:27;;;;;;;8.07;4.80;;;;;28.10;96857.00;;;;8273506;28;20264;-73
2023/05/04 10:54:31;;;;;;;7.65;4.95;;;;;28.20;96841.00;;;;8280532;28;20754;-75
2023/05/04 10:58:35;;;;;;;9.90;5.68;;;;;28.50;96831.00;;;;8274050;28;20233;-75
2023/05/04 11:02:39;;;;;;;9.45;4.88;;;;;28.40;96823.00;;;;8269358;28;20233;-75
2023/05/04 11:06:43;;;;;;;9.23;4.60;;;;;28.30;96826.00;;;;8278319;28;20540;-75
2023/05/04 11:10:51;;;;;;;8.55;4.65;;;;;28.10;96821.00;;;;8274213;28;20871;-71
2023/05/04 11:15:05;;;;;;;7.00;4.68;;;;;28.60;96823.00;;;;8276259;28;20297;-76
2023/05/04 11:19:11;;;;;;;9.95;4.50;;;;;29.00;96820.00;;;;8276920;28;20210;-75
2023/05/04 11:23:16;;;;;;;4.50;3.65;;;;;29.10;96804.00;;;;8274347;28;20631;-75
2023/05/04 11:27:28;;;;;;;5.53;4.03;;;;;29.00;96808.00;;;;8267226;28;20198;-74
2023/05/04 11:31:32;;;;;;;4.60;3.92;;;;;28.90;96798.00;;;;8274495;28;20263;-72
2023/05/04 11:35:35;;;;;;;10.40;3.97;;;;;28.70;96792.00;;;;8265202;28;20734;-72
2023/05/04 11:39:39;;;;;;;7.25;4.18;;;;;29.00;96786.00;;;;8274433;28;20207;-73
2023/05/04 11:43:45;;;;;;;8.00;3.53;;;;;29.10;96789.00;;;;8271050;28;20269;-73
2023/05/04 11:47:49;;;;;;;3.88;3.38;;;;;29.00;96788.00;;;;8275340;28;20549;-72
2023/05/04 11:52:04;;;;;;;7.82;4.20;;;;;29.00;96782.00;;;;8280380;28;20210;-73
2023/05/04 11:56:09;;;;;;;4.20;3.33;;;;;29.00;96781.00;;;;8272600;28;20626;-73
2023/05/04 12:00:19;;;;;;;4.47;3.60;;;;;29.10;96770.00;;;;8279229;28;20309;-73
2023/05/04 12:04:23;;;;;;;9.10;3.60;;;;;29.10;96780.00;;;;8281470;28;20234;-74
2023/05/04 12:08:29;;;;;;;7.03;3.58;;;;;28.90;96757.00;;;;8282355;28;20260;-73
2023/05/04 12:12:35;;;;;;;6.05;3.90;;;;;28.30;96752.00;;;;8274680;28;20782;-73
2023/05/04 12:16:42;;;;;;;6.57;3.75;;;;;27.70;96753.00;;;;8284534;28;20222;-74
2023/05/04 12:20:47;;;;;;;5.95;4.18;;;;;27.20;96745.00;;;;8271634;28;20730;-74
2023/05/04 12:24:50;;;;;;;5.70;3.40;;;;;26.50;96748.00;;;;8276611;28;20194;-73
2023/05/04 12:28:54;;;;;;;6.00;3.50;;;;;26.20;96744.00;;;;8279724;28;20257;-73
2023/05/04 12:32:58;;;;;;;4.88;3.45;;;;;25.90;96740.00;;;;8278286;28;20327;-73
2023/05/04 12:37:02;;;;;;;8.52;3.75;;;;;25.70;96732.00;;;;8280433;28;20226;-72
2023/05/04 12:41:09;;;;;;;4.80;2.70;;;;;25.50;96728.00;;;;8277921;28;20221;-70
2023/05/04 12:45:14;;;;;;;7.32;2.88;;;;;25.50;96725.00;;;;8280108;28;20305;-73
2023/05/04 12:49:22;;;;;;;6.15;2.70;;;;;25.50;96734.00;;;;8278136;28;20349;-72
2023/05/04 12:53:28;;;;;;;6.50;2.50;;;;;25.50;96728.00;;;;8278857;28;20256;-73
2023/05/04 12:57:33;;;;;;;5.90;2.75;;;;;25.60;96725.00;;;;8281578;28;20905;-73
2023/05/04 13:01:36;;;;;;;4.90;2.72;;;;;25.60;96718.00;;;;8281938;28;20209;-73
2023/05/04 13:05:41;;;;;;;9.73;2.70;;;;;25.70;96716.00;;;;8272978;28;20202;-73
2023/05/04 13:09:47;;;;;;;2.40;2.20;;;;;25.90;96707.00;;;;8276053;28;20203;-72
2023/05/04 13:13:51;;;;;;;3.08;2.50;;;;;26.20;96705.00;;;;8280811;28;20275;-73
2023/05/04 13:17:54;;;;;;;2.70;2.50;;;;;26.40;96711.00;;;;8274742;28;20734;-71
2023/05/04 13:21:59;;;;;;;2.50;2.30;;;;;26.70;96698.00;;;;8277912;28;20206;-72
2023/05/04 13:26:02;;;;;;;2.35;2.15;;;;;27.00;96693.00;;;;8283458;28;20349;-71
2023/05/04 13:30:12;;;;;;;3.80;2.70;;;;;27.20;96686.00;;;;8275781;28;20294;-71
2023/05/04 13:34:15;;;;;;;3.60;2.63;;;;;27.20;96691.00;;;;8276623;28;20233;-70
2023/05/04 13:38:19;;;;;;;4.03;2.67;;;;;27.70;96683.00;;;;8280958;28;20721;-71
2023/05/04 13:42:23;;;;;;;3.45;2.83;;;;;28.10;96680.00;;;;8280259;28;20207;-71
2023/05/04 13:46:28;;;;;;;5.13;2.90;;;;;27.80;96681.00;;;;8280256;28;20205;-71
2023/05/04 13:50:34;;;;;;;2.75;2.30;;;;;27.80;96680.00;;;;8277607;28;20229;-71
2023/05/04 13:54:43;;;;;;;3.83;3.08;;;;;28.30;96666.00;;;;8286691;28;20694;-69
2023/05/04 13:58:46;;;;;;;3.78;2.50;;;;;28.60;96664.00;;;;8277053;28;20203;-68
2023/05/04 14:02:49;;;;;;;2.95;2.70;;;;;28.90;96665.00;;;;8277318;28;20225;-67
2023/05/04 14:06:55;;;;;;;3.22;2.25;;;;;28.80;96654.00;;;;8284480;28;20715;-68
2023/05/04 14:11:00;;;;;;;2.95;2.30;;;;;28.70;96652.00;;;;8282803;28;20191;-69
2023/05/04 14:15:04;;;;;;;8.32;2.75;;;;;29.30;96641.00;;;;8272770;28;20277;-74
2023/05/04 14:19:10;;;;;;;4.95;2.67;;;;;29.50;96632.00;;;;8275869;28;20244;-70
2023/05/04 14:23:15;;;;;;;6.85;2.25;;;;;29.40;96638.00;;;;8282697;28;20205;-73
2023/05/04 14:27:21;;;;;;;1.98;1.85;;;;;29.70;96629.00;;;;8275028;28;20205;-73
2023/05/04 14:31:26;;;;;;;2.58;2.05;;;;;29.90;96630.00;;;;8278106;28;20240;-74
2023/05/04 14:35:32;;;;;;;1.95;1.80;;;;;29.90;96621.00;;;;8274052;28;20237;-74
2023/05/04 14:39:38;;;;;;;3.88;2.10;;;;;29.70;96615.00;;;;8281280;28;20225;-73
2023/05/04 14:43:45;;;;;;;3.92;2.00;;;;;29.00;96622.00;;;;8270193;28;20194;-72
2023/05/04 14:47:49;;;;;;;4.07;1.88;;;;;28.80;96617.00;;;;8279999;28;20186;-75
2023/05/04 14:51:52;;;;;;;2.40;2.22;;;;;28.60;96619.00;;;;8282677;28;20236;-74
2023/05/04 14:55:57;;;;;;;4.63;1.90;;;;;28.40;96615.00;;;;8273683;28;20399;-72
2023/05/04 15:00:10;;;;;;;2.88;1.90;;;;;28.10;96612.00;;;;8277115;28;20202;-71
2023/05/04 15:04:17;;;;;;;3.13;2.40;;;;;28.20;96616.00;;;;8273163;28;20229;-72
2023/05/04 15:08:25;;;;;;;5.50;2.20;;;;;28.10;96615.00;;;;8280120;28;20195;-72
2023/05/04 15:12:29;;;;;;;2.55;1.83;;;;;28.10;96602.00;;;;8282643;28;20209;-72
2023/05/04 15:16:34;;;;;;;2.05;1.95;;;;;28.10;96602.00;;;;8275800;28;20269;-71
2023/05/04 15:20:38;;;;;;;1.90;1.80;;;;;27.80;96597.00;;;;8275634;28;20198;-71
2023/05/04 15:24:43;;;;;;;2.45;1.98;;;;;27.40;96585.00;;;;8278590;28;20218;-70
2023/05/04 15:28:48;;;;;;;2.13;1.77;;;;;27.00;96592.00;;;;8286468;28;20202;-70
2023/05/04 15:32:53;;;;;;;1.90;1.60;;;;;26.70;96592.00;;;;8284778;28;20638;-71
2023/05/04 15:37:03;;;;;;;3.88;1.70;;;;;26.60;96593.00;;;;8288269;28;20264;-72
2023/05/04 15:41:10;;;;;;;2.50;1.73;;;;;26.40;96590.00;;;;8289485;28;20820;-72
2023/05/04 15:45:13;;;;;;;2.88;1.92;;;;;26.50;96584.00;;;;8291625;28;20882;-73
2023/05/04 15:49:22;;;;;;;2.63;1.85;;;;;26.60;96588.00;;;;8281680;28;20206;-72
2023/05/04 15:53:29;;;;;;;2.15;2.00;;;;;26.60;96578.00;;;;8284212;28;20206;-72
2023/05/04 15:57:32;;;;;;;3.30;1.70;;;;;26.70;96582.00;;;;8287153;28;20234;-73
2023/05/04 16:01:36;;;;;;;2.50;2.30;;;;;26.90;96570.00;;;;8283458;28;20218;-74
2023/05/04 16:05:40;;;;;;;2.30;2.08;;;;;26.70;96571.00;;;;8278863;28;20202;-73
2023/05/04 16:09:47;;;;;;;4.43;2.78;;;;;26.50;96566.00;;;;8285846;28;20937;-74
2023/05/04 16:13:55;;;;;;;3.40;2.60;;;;;26.40;96560.00;;;;8286958;28;20206;-73
2023/05/04 16:17:59;;;;;;;3.45;2.30;;;;;26.50;96572.00;;;;8275447;28;20214;-73
2023/05/04 16:22:06;;;;;;;3.83;2.22;;;;;26.70;96550.00;;;;8283952;28;20248;-71
2023/05/04 16:26:09;;;;;;;4.05;2.40;;;;;26.80;96556.00;;;;8288713;28;20548;-71
2023/05/04 16:30:16;;;;;;;5.78;2.22;;;;;27.00;96549.00;;;;8286482;28;20191;-72
2023/05/04 16:34:22;;;;;;;4.25;2.75;;;;;27.10;96539.00;;;;8278702;28;20209;-71
2023/05/04 16:38:29;;;;;;;4.03;2.53;;;;;27.20;96534.00;;;;8276029;28;20230;-72
2023/05/04 16:42:33;;;;;;;2.83;2.30;;;;;27.20;96539.00;;;;8284075;28;20851;-72
2023/05/04 16:46:37;;;;;;;5.00;2.45;;;;;27.20;96533.00;;;;8286642;28;20198;-71
2023/05/04 16:50:40;;;;;;;2.83;2.50;;;;;27.00;96530.00;;;;8283001;28;20232;-71
2023/05/04 16:54:47;;;;;;;5.30;2.60;;;;;26.90;96526.00;;;;8281310;28;20194;-71
2023/05/04 16:58:50;;;;;;;4.25;3.25;;;;;26.70;96527.00;;;;8279550;28;20237;-71
2023/05/04 17:02:54;;;;;;;5.10;2.90;;;;;26.20;96518.00;;;;8286647;28;20222;-72
2023/05/04 17:06:57;;;;;;;6.35;2.97;;;;;26.10;96519.00;;;;8280539;28;20210;-72
2023/05/04 17:11:01;;;;;;;7.82;2.90;;;;;26.00;96518.00;;;;8284174;28;21832;-71
2023/05/04 17:15:07;;;;;;;4.05;2.47;;;;;25.70;96517.00;;;;8277899;28;20198;-71
2023/05/04 17:19:11;;;;;;;10.80;2.85;;;;;25.20;96515.00;;;;8282610;28;20213;-71
2023/05/04 17:23:18;;;;;;;10.85;3.13;;;;;24.90;96514.00;;;;8280076;28;20213;-71
2023/05/04 17:27:23;;;;;;;7.18;2.60;;;;;24.60;96517.00;;;;8283121;28;20260;-71
2023/05/04 17:31:26;;;;;;;3.88;2.67;;;;;24.50;96510.00;;;;8279604;28;20647;-71
2023/05/04 17:35:29;;;;;;;3.60;2.80;;;;;24.30;96517.00;;;;8284425;28;20230;-71
2023/05/04 17:39:32;;;;;;;7.35;2.67;;;;;23.90;96509.00;;;;8282775;28;20209;-71
2023/05/04 17:43:40;;;;;;;10.20;3.05;;;;;23.40;96508.00;;;;8299831;28;20663;-70
2023/05/04 17:47:46;;;;;;;4.85;2.97;;;;;23.00;96519.00;;;;8280328;28;20214;-71
2023/05/04 17:51:52;;;;;;;6.32;2.58;;;;;22.60;96517.00;;;;8283643;28;20193;-71
2023/05/04 17:55:55;;;;;;;8.45;2.80;;;;;22.10;96521.00;;;;8281813;28;20237;-71
2023/05/04 18:00:03;;;;;;;10.73;3.05;;;;;21.70;96520.00;;;;8282202;28;20202;-70
2023/05/04 18:04:09;;;;;;;12.85;3.15;;;;;21.30;96529.00;;;;8277636;28;20222;-70
2023/05/04 18:08:12;;;;;;;8.65;3.20;;;;;20.90;96535.00;;;;8284201;28;20237;-70
2023/05/04 18:12:20;;;;;;;12.73;3.47;;;;;20.50;96542.00;;;;8278118;28;20206;-70
2023/05/04 18:16:28;;;;;;;7.28;3.45;;;;;19.90;96555.00;;;;8283050;28;20618;-70
2023/05/04 18:20:33;;;;;;;10.60;3.42;;;;;19.30;96551.00;;;;8281627;28;20210;-71
2023/05/04 18:24:36;;;;;;;7.70;3.13;;;;;18.80;96563.00;;;;8283393;28;20260;-70
2023/05/04 18:28:39;;;;;;;7.25;4.03;;;;;18.30;96561.00;;;;8282214;28;20194;-70
2023/05/04 18:32:44;;;;;;;9.93;3.75;;;;;17.70;96560.00;;;;8278634;28;20697;-70
2023/05/04 18:36:47;;;;;;;19.88;4.25;;;;;17.20;96568.00;;;;8278621;28;20222;-71
2023/05/04 18:40:53;;;;;;;17.67;4.65;;;;;16.70;96567.00;;;;8282699;28;20195;-71
2023/05/04 18:44:57;;;;;;;17.67;4.18;;;;;16.20;96569.00;;;;8276227;28;20665;-70
2023/05/04 18:49:03;;;;;;;6.40;3.22;;;;;15.80;96567.00;;;;8281662;28;20205;-70
2023/05/04 18:53:09;;;;;;;12.60;4.05;;;;;15.50;96573.00;;;;8282478;28;20206;-70
2023/05/04 18:57:13;;;;;;;9.38;3.83;;;;;15.30;96571.00;;;;8283630;28;20210;-70
2023/05/04 19:01:16;;;;;;;11.02;3.90;;;;;15.00;96570.00;;;;8279060;28;20210;-70
2023/05/04 19:05:21;;;;;;;10.05;3.70;;;;;14.90;96573.00;;;;8271146;28;20308;-70
2023/05/04 19:09:24;;;;;;;7.80;4.03;;;;;14.60;96570.00;;;;8285195;28;20198;-70
2023/05/04 19:13:27;;;;;;;12.65;4.00;;;;;14.40;96567.00;;;;8284865;28;20733;-70
2023/05/04 19:17:33;;;;;;;11.25;4.00;;;;;14.20;96564.00;;;;8284019;28;20234;-70
2023/05/04 19:21:38;;;;;;;14.10;4.25;;;;;13.90;96570.00;;;;8285343;28;20665;-70
2023/05/04 19:25:41;;;;;;;10.90;4.47;;;;;13.70;96574.00;;;;8276172;28;20279;-70
2023/05/04 19:29:44;;;;;;;15.18;4.75;;;;;13.60;96572.00;;;;8283755;28;20209;-70
2023/05/04 19:33:48;;;;;;;12.40;4.35;;;;;13.50;96575.00;;;;8284540;28;20197;-70
2023/05/04 19:37:53;;;;;;;9.52;4.95;;;;;13.40;96580.00;;;;8279020;28;20267;-70
2023/05/04 19:42:00;;;;;;;6.07;4.43;;;;;13.20;96570.00;;;;8284457;28;20241;-70
2023/05/04 19:46:03;;;;;;;10.55;4.32;;;;;13.10;96580.00;;;;8279180;28;20202;-70
2023/05/04 19:50:09;;;;;;;12.40;5.90;;;;;12.90;96578.00;;;;8275123;28;20204;-70
2023/05/04 19:54:15;;;;;;;8.95;5.50;;;;;12.90;96577.00;;;;8278637;28;20286;-70
2023/05/04 19:58:20;;;;;;;16.95;5.75;;;;;12.80;96573.00;;;;8275691;28;20225;-70
2023/05/04 20:02:28;;;;;;;17.65;5.68;;;;;12.60;96571.00;;;;8277277;28;20339;-72
2023/05/04 20:06:34;;;;;;;8.50;5.30;;;;;12.50;96576.00;;;;8277930;28;20238;-71
2023/05/04 20:10:39;;;;;;;14.60;5.45;;;;;12.30;96567.00;;;;8279614;28;20192;-71
2023/05/04 20:14:46;;;;;;;8.88;5.18;;;;;12.20;96569.00;;;;8287739;28;20203;-69
2023/05/04 20:18:52;;;;;;;7.28;5.55;;;;;12.20;96570.00;;;;8287530;28;20728;-70
2023/05/04 20:22:57;;;;;;;7.28;5.22;;;;;12.20;96578.00;;;;8283734;28;20205;-71
2023/05/04 20:27:05;;;;;;;12.55;5.82;;;;;12.10;96576.00;;;;8278739;28;20208;-69